FQMA/MPM METAR and TAF weather

Enter ICAO airport designator
Station Type Date Time Source
FQMA METAR 2019/08/21 23:00 UTC NOAA

FQMA 212300Z 20005KT 9999 FEW020 16/13 Q1029 NOSIG


Station Type Date Time Source
FQMA Decoded METAR 2019/08/21 23:00 UTC NOAA

Station name not available
Aug 21, 2019 - 07:00 PM EDT / 2019.08.21 2300 UTC
Wind: from the SSW (200 degrees) at 6 MPH (5 KT):0
Visibility: greater than 7 mile(s):0
Sky conditions: mostly clear
Temperature: 60 F (16 C)
Dew Point: 55 F (13 C)
Relative Humidity: 82%
Pressure (altimeter): 30.39 in. Hg (1029 hPa)
ob: FQMA 212300Z 20005KT 9999 FEW020 16/13 Q1029 NOSIG
cycle: 23

Station Type Date Time Source
FQMA TAF 2019/08/21 18:56 UTC NOAA

TAF FQMA 211600Z 2118/2224 10008KT 9999 FEW020 TX24/2213Z TN17/2203Z
BECMG 2200/2202 22007KT
BECMG 2210/2212 07012KT

Example: see airport list